createdAt,value
2016-05-17T00:00:33.109Z,10.25
2016-05-17T00:01:32.987Z,10.19
2016-05-17T00:02:32.865Z,10.22
2016-05-17T00:03:33.195Z,10.23
2016-05-17T00:04:33.245Z,10.15
2016-05-17T00:05:33.263Z,10.19
2016-05-17T00:06:33.922Z,10.16
2016-05-17T00:07:33.175Z,10.07
2016-05-17T00:08:33.365Z,10.13
2016-05-17T00:09:33.243Z,10.17
2016-05-17T00:10:33.433Z,10.1
2016-05-17T00:11:33.327Z,10.13
2016-05-17T00:12:33.502Z,10.12
2016-05-17T00:13:33.535Z,10.09
2016-05-17T00:14:33.569Z,10.05
2016-05-17T00:15:33.602Z,10.16
2016-05-17T00:16:33.465Z,10.22
2016-05-17T00:17:33.499Z,10.28
2016-05-17T00:18:33.688Z,10.19
2016-05-17T00:19:33.708Z,10.15
2016-05-17T00:20:33.757Z,10.1
2016-05-17T00:21:34.291Z,10.09
2016-05-17T00:22:33.810Z,10.22
2016-05-17T00:23:33.843Z,10.19
2016-05-17T00:24:33.877Z,10.12
2016-05-17T00:25:33.911Z,10.1
2016-05-17T00:26:33.945Z,10.12
2016-05-17T00:27:33.979Z,10.12
2016-05-17T00:28:33.857Z,10.13
2016-05-17T00:29:34.031Z,10.15
2016-05-17T00:30:33.909Z,10.16
2016-05-17T00:31:34.098Z,10.04
2016-05-17T00:32:33.993Z,9.98
2016-05-17T00:33:34.011Z,9.99
2016-05-17T00:34:34.044Z,9.97
2016-05-17T00:35:34.063Z,9.99
2016-05-17T00:36:34.441Z,10.01
2016-05-17T00:37:34.287Z,10.09
2016-05-17T00:38:34.322Z,9.98
2016-05-17T00:39:34.355Z,9.87
2016-05-17T00:40:34.389Z,10.02
2016-05-17T00:41:34.407Z,9.86
2016-05-17T00:42:34.457Z,9.98
2016-05-17T00:43:34.475Z,9.99
2016-05-17T00:44:34.213Z,9.99
2016-05-17T00:45:34.544Z,9.98
2016-05-17T00:46:34.577Z,10.01
2016-05-17T00:47:34.455Z,10.04
2016-05-17T00:48:34.630Z,10.04
2016-05-17T00:49:34.522Z,10.04
2016-05-17T00:50:34.556Z,10.07
2016-05-17T00:51:34.746Z,10.12
2016-05-17T00:52:34.765Z,10.01
2016-05-17T00:53:34.487Z,9.86
2016-05-17T00:54:34.832Z,9.99
2016-05-17T00:55:34.710Z,9.92
2016-05-17T00:56:34.901Z,9.97
2016-05-17T00:57:34.622Z,9.94
2016-05-17T00:58:34.984Z,10.05
2016-05-17T00:59:34.987Z,9.94
2016-05-17T01:00:34.709Z,9.94
2016-05-17T01:01:35.055Z,9.92
2016-05-17T01:02:35.089Z,9.89
2016-05-17T01:03:35.123Z,9.89
2016-05-17T01:04:35.156Z,9.86
2016-05-17T01:05:35.019Z,9.89
2016-05-17T01:06:35.567Z,9.8
2016-05-17T01:07:35.243Z,9.8
2016-05-17T01:08:35.277Z,9.82
2016-05-17T01:09:35.311Z,9.89
2016-05-17T01:10:35.189Z,9.92
2016-05-17T01:11:35.363Z,9.83
2016-05-17T01:12:35.397Z,9.91
2016-05-17T01:13:35.275Z,9.77
2016-05-17T01:14:35.464Z,9.84
2016-05-17T01:15:35.499Z,9.82
2016-05-17T01:16:35.533Z,9.84
2016-05-17T01:17:35.567Z,9.92
2016-05-17T01:18:35.429Z,9.89
2016-05-17T01:19:35.619Z,9.94
2016-05-17T01:20:35.653Z,9.94
2016-05-17T01:21:35.952Z,9.89
2016-05-17T01:22:35.721Z,9.97
2016-05-17T01:23:35.754Z,9.99
2016-05-17T01:24:35.773Z,9.89
2016-05-17T01:25:35.823Z,9.84
2016-05-17T01:26:35.841Z,9.79
2016-05-17T01:27:35.890Z,9.89
2016-05-17T01:28:35.752Z,9.84
2016-05-17T01:29:35.942Z,9.91
2016-05-17T01:30:35.976Z,9.91
2016-05-17T01:31:36.010Z,9.92
2016-05-17T01:32:36.044Z,9.84
2016-05-17T01:33:36.063Z,9.76
2016-05-17T01:34:36.097Z,9.84
2016-05-17T01:35:36.131Z,9.92
2016-05-17T01:36:36.181Z,9.87
2016-05-17T01:37:36.042Z,9.87
2016-05-17T01:38:36.233Z,9.84
2016-05-17T01:39:36.266Z,9.8
2016-05-17T01:40:36.300Z,9.73
2016-05-17T01:41:36.319Z,9.66
2016-05-17T01:42:36.353Z,9.79
2016-05-17T01:43:36.386Z,9.77
2016-05-17T01:44:36.420Z,9.76
2016-05-17T01:45:36.454Z,9.82
2016-05-17T01:46:36.332Z,9.94
2016-05-17T01:47:36.350Z,9.89
2016-05-17T01:48:36.384Z,9.77
2016-05-17T01:49:36.419Z,9.8
2016-05-17T01:50:36.327Z,9.87
2016-05-17T01:51:37.236Z,9.76
2016-05-17T01:52:36.661Z,9.74
2016-05-17T01:53:36.554Z,9.76
2016-05-17T01:54:36.729Z,9.77
2016-05-17T01:55:36.762Z,9.8
2016-05-17T01:56:36.796Z,9.77
2016-05-17T01:57:36.674Z,9.76
2016-05-17T01:58:36.708Z,9.76
2016-05-17T01:59:36.882Z,9.73
2016-05-17T02:00:36.917Z,9.77
2016-05-17T02:01:36.951Z,9.74
2016-05-17T02:02:36.828Z,9.8
2016-05-17T02:03:37.018Z,9.73
2016-05-17T02:04:37.052Z,9.77
2016-05-17T02:05:36.931Z,9.84
2016-05-17T02:06:37.151Z,9.86
2016-05-17T02:07:37.139Z,9.94
2016-05-17T02:08:37.173Z,9.89
2016-05-17T02:09:37.222Z,9.91
2016-05-17T02:10:37.084Z,9.77
2016-05-17T02:11:37.118Z,9.79
2016-05-17T02:12:37.292Z,9.79
2016-05-17T02:13:37.342Z,9.91
2016-05-17T02:14:37.220Z,9.94
2016-05-17T02:15:37.394Z,9.89
2016-05-17T02:16:37.444Z,9.77
2016-05-17T02:17:37.463Z,9.89
2016-05-17T02:18:37.480Z,9.92
2016-05-17T02:19:37.375Z,9.87
2016-05-17T02:20:37.548Z,9.73
2016-05-17T02:21:37.598Z,9.72
2016-05-17T02:22:37.460Z,9.76
2016-05-17T02:23:37.494Z,9.8
2016-05-17T02:24:37.669Z,9.89
2016-05-17T02:25:37.702Z,9.94
2016-05-17T02:26:37.752Z,9.99
2016-05-17T02:27:37.771Z,9.83
2016-05-17T02:28:37.804Z,9.91
2016-05-17T02:29:37.838Z,9.83
2016-05-17T02:30:37.873Z,9.86
2016-05-17T02:31:37.751Z,9.77
2016-05-17T02:32:37.956Z,9.82
2016-05-17T02:33:37.974Z,9.79
2016-05-17T02:34:37.883Z,9.77
2016-05-17T02:35:37.932Z,9.73
2016-05-17T02:36:38.388Z,9.8
2016-05-17T02:37:38.063Z,9.73
2016-05-17T02:38:37.972Z,9.84
2016-05-17T02:39:38.209Z,9.86
2016-05-17T02:40:38.243Z,9.82
2016-05-17T02:41:38.058Z,9.99
2016-05-17T02:42:38.264Z,9.87
2016-05-17T02:43:38.282Z,9.91
2016-05-17T02:44:38.316Z,9.86
2016-05-17T02:45:38.350Z,9.89
2016-05-17T02:46:38.369Z,9.89
2016-05-17T02:47:38.262Z,9.89
2016-05-17T02:48:38.436Z,9.89
2016-05-17T02:49:38.469Z,9.89
2016-05-17T02:50:38.504Z,9.91
2016-05-17T02:51:38.523Z,9.92
2016-05-17T02:52:38.557Z,9.87
2016-05-17T02:53:38.591Z,9.91
2016-05-17T02:54:38.624Z,9.84
2016-05-17T02:55:38.502Z,9.82
2016-05-17T02:56:38.693Z,9.97
2016-05-17T02:57:38.726Z,9.94
2016-05-17T02:58:38.744Z,10.01
2016-05-17T02:59:38.779Z,9.97
2016-05-17T03:00:38.657Z,9.92
2016-05-17T03:01:38.831Z,9.87
2016-05-17T03:02:38.880Z,9.8
2016-05-17T03:03:38.757Z,9.79
2016-05-17T03:04:38.948Z,9.91
2016-05-17T03:05:38.967Z,9.83
2016-05-17T03:06:39.062Z,9.76
2016-05-17T03:07:39.050Z,9.87
2016-05-17T03:08:39.068Z,9.86
2016-05-17T03:09:39.102Z,9.77
2016-05-17T03:10:39.136Z,9.91
2016-05-17T03:11:39.154Z,9.86
2016-05-17T03:12:39.189Z,9.94
2016-05-17T03:13:39.222Z,9.95
2016-05-17T03:14:39.256Z,9.89
2016-05-17T03:15:39.289Z,9.94
2016-05-17T03:16:39.309Z,9.91
2016-05-17T03:17:39.342Z,9.86
2016-05-17T03:18:39.377Z,9.89
2016-05-17T03:19:39.255Z,9.89
2016-05-17T03:20:39.444Z,9.83
2016-05-17T03:21:39.477Z,9.74
2016-05-17T03:22:39.496Z,9.77
2016-05-17T03:23:39.546Z,9.84
2016-05-17T03:24:39.721Z,9.84
2016-05-17T03:25:39.598Z,9.84
2016-05-17T03:26:39.648Z,9.92
2016-05-17T03:27:39.666Z,9.92
2016-05-17T03:28:39.716Z,9.84
2016-05-17T03:29:40.171Z,9.84
2016-05-17T03:30:39.752Z,9.91
2016-05-17T03:31:39.786Z,9.94
2016-05-17T03:32:39.836Z,9.89
2016-05-17T03:33:39.855Z,9.84
2016-05-17T03:34:39.888Z,10.04
2016-05-17T03:35:39.923Z,10.05
2016-05-17T03:36:40.409Z,9.97
2016-05-17T03:37:39.990Z,9.94
2016-05-17T03:38:40.023Z,9.98
2016-05-17T03:39:40.043Z,9.97
2016-05-17T03:40:39.920Z,9.89
2016-05-17T03:41:39.954Z,9.84
2016-05-17T03:42:40.128Z,9.94
2016-05-17T03:43:40.178Z,9.95
2016-05-17T03:44:40.212Z,9.97
2016-05-17T03:45:40.074Z,10.01
2016-05-17T03:46:40.264Z,10.1
2016-05-17T03:47:40.313Z,9.99
2016-05-17T03:48:40.333Z,9.92
2016-05-17T03:49:40.225Z,9.89
2016-05-17T03:50:40.399Z,9.84
2016-05-17T03:51:40.434Z,9.95
2016-05-17T03:52:40.468Z,9.91
2016-05-17T03:53:40.486Z,9.92
2016-05-17T03:54:40.519Z,9.86
2016-05-17T03:55:40.397Z,9.91
2016-05-17T03:56:40.588Z,9.94
2016-05-17T03:57:40.622Z,9.92
2016-05-17T03:58:40.655Z,9.77
2016-05-17T03:59:40.690Z,9.94
2016-05-17T04:00:40.724Z,9.89
2016-05-17T04:01:40.742Z,9.89
2016-05-17T04:02:40.620Z,9.89
2016-05-17T04:03:40.809Z,9.98
2016-05-17T04:04:40.860Z,9.97
2016-05-17T04:05:40.707Z,9.95
2016-05-17T04:06:41.646Z,9.83
2016-05-17T04:07:40.930Z,9.87
2016-05-17T04:08:40.964Z,9.86
2016-05-17T04:09:40.998Z,9.94
2016-05-17T04:10:41.031Z,9.86
2016-05-17T04:11:41.065Z,9.91
2016-05-17T04:12:40.928Z,9.87
2016-05-17T04:13:41.118Z,9.86
2016-05-17T04:14:41.011Z,9.94
2016-05-17T04:15:41.186Z,9.92
2016-05-17T04:16:41.079Z,9.82
2016-05-17T04:17:41.253Z,9.84
2016-05-17T04:18:41.272Z,9.94
2016-05-17T04:19:41.165Z,9.94
2016-05-17T04:20:41.356Z,10.09
2016-05-17T04:21:41.390Z,10.12
2016-05-17T04:22:41.424Z,10.1
2016-05-17T04:23:41.442Z,10.05
2016-05-17T04:24:41.163Z,10.01
2016-05-17T04:25:41.369Z,9.98
2016-05-17T04:26:41.543Z,9.94
2016-05-17T04:27:41.562Z,9.97
2016-05-17T04:28:41.611Z,10.1
2016-05-17T04:29:41.630Z,10.1
2016-05-17T04:30:41.663Z,10.12
2016-05-17T04:31:41.698Z,9.98
2016-05-17T04:32:41.747Z,9.94
2016-05-17T04:33:41.765Z,9.95
2016-05-17T04:34:41.799Z,9.97
2016-05-17T04:35:41.817Z,9.99
2016-05-17T04:36:41.930Z,9.97
2016-05-17T04:37:41.886Z,9.97
2016-05-17T04:38:41.763Z,10.04
2016-05-17T04:39:41.938Z,10.02
2016-05-17T04:40:41.972Z,10.04
2016-05-17T04:41:42.006Z,10.04
2016-05-17T04:42:42.039Z,10.01
2016-05-17T04:43:41.917Z,9.94
2016-05-17T04:44:42.108Z,10.01
2016-05-17T04:45:42.142Z,10.01
2016-05-17T04:46:42.192Z,9.97
2016-05-17T04:47:42.209Z,9.97
2016-05-17T04:48:42.244Z,9.95
2016-05-17T04:49:42.261Z,9.97
2016-05-17T04:50:42.311Z,9.97
2016-05-17T04:51:42.532Z,10.05
2016-05-17T04:52:42.364Z,10.04
2016-05-17T04:53:42.398Z,10.13
2016-05-17T04:54:42.431Z,10.1
2016-05-17T04:55:42.466Z,10.09
2016-05-17T04:56:42.499Z,10.09
2016-05-17T04:57:42.377Z,10.09
2016-05-17T04:58:42.552Z,10.15
2016-05-17T04:59:42.601Z,10.17
2016-05-17T05:00:42.463Z,10.12
2016-05-17T05:01:42.654Z,10.12
2016-05-17T05:02:42.688Z,10.1
2016-05-17T05:03:42.721Z,10.15
2016-05-17T05:04:42.583Z,10.23
2016-05-17T05:05:42.773Z,10.22
2016-05-17T05:06:42.807Z,10.17
2016-05-17T05:07:42.840Z,10.31
2016-05-17T05:08:42.875Z,10.26
2016-05-17T05:09:42.931Z,10.19
2016-05-17T05:10:43.007Z,10.16
2016-05-17T05:11:43.069Z,10.26
2016-05-17T05:12:43.161Z,10.23
2016-05-17T05:13:43.238Z,10.15
2016-05-17T05:14:43.286Z,10.25
2016-05-17T05:15:43.179Z,10.15
2016-05-17T05:16:43.385Z,10.23
2016-05-17T05:17:43.433Z,10.25
2016-05-17T05:18:43.468Z,10.28
2016-05-17T05:19:43.372Z,10.31
2016-05-17T05:20:43.551Z,10.23
2016-05-17T05:21:43.606Z,10.33
2016-05-17T05:22:43.630Z,10.35
2016-05-17T05:23:43.512Z,10.35
2016-05-17T05:24:43.550Z,10.28
2016-05-17T05:25:43.743Z,10.33
2016-05-17T05:26:43.623Z,10.37
2016-05-17T05:27:43.658Z,10.3
2016-05-17T05:28:43.694Z,10.28
2016-05-17T05:29:43.886Z,10.34
2016-05-17T05:30:43.904Z,10.33
2016-05-17T05:31:43.939Z,10.37
2016-05-17T05:32:43.849Z,10.4
2016-05-17T05:33:43.993Z,10.41
2016-05-17T05:34:44.058Z,10.41
2016-05-17T05:35:44.062Z,10.35
2016-05-17T05:36:44.112Z,10.4
2016-05-17T05:37:43.974Z,10.44
2016-05-17T05:38:44.008Z,10.48
2016-05-17T05:39:44.043Z,10.51
2016-05-17T05:40:44.232Z,10.4
2016-05-17T05:41:44.095Z,10.46
2016-05-17T05:42:44.285Z,10.4
2016-05-17T05:43:44.335Z,10.38
2016-05-17T05:44:44.353Z,10.41
2016-05-17T05:45:44.387Z,10.38
2016-05-17T05:46:44.421Z,10.4
2016-05-17T05:47:44.454Z,10.48
2016-05-17T05:48:44.505Z,10.46
2016-05-17T05:49:44.537Z,10.57
2016-05-17T05:50:44.415Z,10.53
2016-05-17T05:51:44.590Z,10.53
2016-05-17T05:52:44.625Z,10.56
2016-05-17T05:53:44.643Z,10.6
2016-05-17T05:54:44.677Z,10.56
2016-05-17T05:55:44.711Z,10.68
2016-05-17T05:56:44.589Z,10.69
2016-05-17T05:57:44.639Z,10.63
2016-05-17T05:58:44.656Z,10.6
2016-05-17T05:59:44.847Z,10.57
2016-05-17T06:00:44.709Z,10.67
2016-05-17T06:01:44.914Z,10.79
2016-05-17T06:02:44.933Z,10.75
2016-05-17T06:03:44.967Z,10.79
2016-05-17T06:04:45.000Z,10.86
2016-05-17T06:05:44.878Z,10.87
2016-05-17T06:06:45.068Z,10.86
2016-05-17T06:07:45.102Z,10.99
2016-05-17T06:08:45.136Z,11.08
2016-05-17T06:09:45.155Z,10.99
2016-05-17T06:10:45.204Z,11
2016-05-17T06:11:45.066Z,10.99
2016-05-17T06:12:45.256Z,11.02
2016-05-17T06:13:45.306Z,11.02
2016-05-17T06:14:45.324Z,10.99
2016-05-17T06:15:45.358Z,10.93
2016-05-17T06:16:46.548Z,10.97
2016-05-17T06:17:45.426Z,10.94
2016-05-17T06:18:45.304Z,11
2016-05-17T06:19:45.493Z,11.05
2016-05-17T06:20:45.529Z,11.02
2016-05-17T06:21:45.265Z,11.07
2016-05-17T06:22:45.595Z,11.08
2016-05-17T06:23:45.645Z,11.04
2016-05-17T06:24:45.742Z,11.11
2016-05-17T06:25:45.698Z,11.04
2016-05-17T06:26:45.732Z,11.05
2016-05-17T06:27:45.751Z,11.12
2016-05-17T06:28:45.783Z,10.99
2016-05-17T06:29:45.818Z,10.87
2016-05-17T06:30:45.867Z,10.86
2016-05-17T06:31:45.886Z,10.84
2016-05-17T06:32:45.904Z,10.81
2016-05-17T06:33:45.642Z,10.86
2016-05-17T06:34:45.831Z,10.84
2016-05-17T06:35:45.850Z,10.86
2016-05-17T06:36:45.931Z,10.86
2016-05-17T06:37:46.074Z,10.81
2016-05-17T06:38:46.108Z,10.74
2016-05-17T06:39:46.001Z,10.79
2016-05-17T06:40:46.175Z,10.79
2016-05-17T06:41:46.210Z,10.81
2016-05-17T06:42:46.244Z,10.79
2016-05-17T06:43:46.293Z,10.87
2016-05-17T06:44:46.327Z,11.07
2016-05-17T06:45:46.346Z,11.1
2016-05-17T06:46:46.379Z,11.08
2016-05-17T06:47:46.241Z,11.04
2016-05-17T06:48:46.446Z,11.07
2016-05-17T06:49:46.465Z,11.11
2016-05-17T06:50:46.499Z,11.1
2016-05-17T06:51:47.143Z,11.15
2016-05-17T06:52:46.567Z,11.18
2016-05-17T06:53:46.601Z,11.26
2016-05-17T06:54:46.635Z,11.17
2016-05-17T06:55:46.512Z,11.3
2016-05-17T06:56:46.547Z,11.18
2016-05-17T06:57:46.720Z,11.23
2016-05-17T06:58:46.599Z,11.07
2016-05-17T06:59:46.648Z,11.22
2016-05-17T07:00:46.823Z,11.12
2016-05-17T07:01:46.856Z,11.12
2016-05-17T07:02:46.891Z,11.14
2016-05-17T07:03:46.784Z,11.25
2016-05-17T07:04:46.802Z,11.37
2016-05-17T07:05:46.992Z,11.4
2016-05-17T07:06:47.027Z,11.44
2016-05-17T07:07:47.061Z,11.5
2016-05-17T07:08:47.094Z,11.52
2016-05-17T07:09:46.972Z,11.5
2016-05-17T07:10:47.146Z,11.48
2016-05-17T07:11:47.196Z,11.59
2016-05-17T07:12:47.230Z,11.45
2016-05-17T07:13:47.264Z,11.5
2016-05-17T07:14:47.282Z,11.51
2016-05-17T07:15:47.160Z,11.57
2016-05-17T07:16:47.366Z,11.47
2016-05-17T07:17:47.400Z,11.5
2016-05-17T07:18:47.434Z,11.59
2016-05-17T07:19:47.452Z,11.51
2016-05-17T07:20:47.486Z,11.55
2016-05-17T07:21:47.926Z,11.57
2016-05-17T07:22:47.570Z,11.5
2016-05-17T07:23:47.431Z,11.54
2016-05-17T07:24:47.310Z,11.54
2016-05-17T07:25:47.656Z,11.52
2016-05-17T07:26:47.690Z,11.6
2016-05-17T07:27:47.568Z,11.69
2016-05-17T07:28:47.742Z,11.62
2016-05-17T07:29:47.807Z,11.68
2016-05-17T07:30:47.825Z,11.75
2016-05-17T07:31:47.844Z,11.81
2016-05-17T07:32:47.894Z,11.83
2016-05-17T07:33:47.928Z,11.87
2016-05-17T07:34:47.992Z,12
2016-05-17T07:35:47.980Z,11.86
2016-05-17T07:36:48.217Z,11.87
2016-05-17T07:37:48.063Z,12
2016-05-17T07:38:48.097Z,11.99
2016-05-17T07:39:47.975Z,11.95
2016-05-17T07:40:48.008Z,12.12
2016-05-17T07:41:48.199Z,12.17
2016-05-17T07:42:48.061Z,12.28
2016-05-17T07:43:48.266Z,12.18
2016-05-17T07:44:48.301Z,12.17
2016-05-17T07:45:48.318Z,12.18
2016-05-17T07:46:48.369Z,12.21
2016-05-17T07:47:48.388Z,12.2
2016-05-17T07:48:48.421Z,12.18
2016-05-17T07:49:48.486Z,12.27
2016-05-17T07:50:48.504Z,12.28
2016-05-17T07:51:48.538Z,12.4
2016-05-17T07:52:48.416Z,12.42
2016-05-17T07:53:48.434Z,12.37
2016-05-17T07:54:48.624Z,12.31
2016-05-17T07:55:48.517Z,12.45
2016-05-17T07:56:48.709Z,12.5
2016-05-17T07:57:48.742Z,12.72
2016-05-17T07:58:48.620Z,12.62
2016-05-17T07:59:48.810Z,12.73
2016-05-17T08:00:48.531Z,12.64
2016-05-17T08:01:48.878Z,12.72
2016-05-17T08:02:48.912Z,12.75
2016-05-17T08:03:48.789Z,12.87
2016-05-17T08:04:48.980Z,12.91
2016-05-17T08:05:48.857Z,13.13
2016-05-17T08:06:48.892Z,13.25
2016-05-17T08:07:49.066Z,13.37
2016-05-17T08:08:49.115Z,13.59
2016-05-17T08:09:48.994Z,13.77
2016-05-17T08:10:49.027Z,13.72
2016-05-17T08:11:49.061Z,13.74
2016-05-17T08:12:49.236Z,13.78
2016-05-17T08:13:49.285Z,13.86
2016-05-17T08:14:49.319Z,13.96
2016-05-17T08:15:49.368Z,13.83
2016-05-17T08:16:49.402Z,13.81
2016-05-17T08:17:49.421Z,13.89
2016-05-17T08:18:49.313Z,14.1
2016-05-17T08:19:49.504Z,14.44
2016-05-17T08:20:49.538Z,14.33
2016-05-17T08:21:49.431Z,14.25
2016-05-17T08:22:49.607Z,14.45
2016-05-17T08:23:49.515Z,14.4
2016-05-17T08:24:49.518Z,14.4
2016-05-17T08:25:49.707Z,14.44
2016-05-17T08:26:49.601Z,14.53
2016-05-17T08:27:49.807Z,14.82
2016-05-17T08:28:49.669Z,14.86
2016-05-17T08:29:49.875Z,14.84
2016-05-17T08:30:49.893Z,14.82
2016-05-17T08:31:49.928Z,14.7
2016-05-17T08:32:49.961Z,14.84
2016-05-17T08:33:50.026Z,15.03
2016-05-17T08:34:50.045Z,14.94
2016-05-17T08:35:49.923Z,15.03
2016-05-17T08:36:50.503Z,15.09
2016-05-17T08:37:50.162Z,14.86
2016-05-17T08:38:50.181Z,15.1
2016-05-17T08:39:50.230Z,15.31
2016-05-17T08:40:50.264Z,15.59
2016-05-17T08:41:50.298Z,15.37
2016-05-17T08:42:50.332Z,15.52
2016-05-17T08:43:50.366Z,15.7
2016-05-17T08:44:50.399Z,15.72
2016-05-17T08:45:50.433Z,15.55
2016-05-17T08:46:50.483Z,15.24
2016-05-17T08:47:50.517Z,14.94
2016-05-17T08:48:50.566Z,14.91
2016-05-17T08:49:50.601Z,14.55
2016-05-17T08:50:50.634Z,14.2
2016-05-17T08:51:50.527Z,14.3
2016-05-17T08:52:50.702Z,14.28
2016-05-17T08:53:50.440Z,14.53
2016-05-17T08:54:50.771Z,14.81
2016-05-17T08:55:50.663Z,14.78
2016-05-17T08:56:50.698Z,14.82
2016-05-17T08:57:50.732Z,14.86
2016-05-17T08:58:50.765Z,15.09
2016-05-17T08:59:50.815Z,15.04
2016-05-17T09:00:51.006Z,15.19
2016-05-17T09:01:51.039Z,15.31
2016-05-17T09:02:51.073Z,15.59
2016-05-17T09:03:51.106Z,15.72
2016-05-17T09:04:51.000Z,15.86
2016-05-17T09:05:51.190Z,15.68
2016-05-17T09:06:51.239Z,15.57
2016-05-17T09:07:51.117Z,15.54
2016-05-17T09:08:51.308Z,15.65
2016-05-17T09:09:51.342Z,15.77
2016-05-17T09:10:51.220Z,15.67
2016-05-17T09:11:51.410Z,15.47
2016-05-17T09:12:51.491Z,15.51
2016-05-17T09:13:51.336Z,15.59
2016-05-17T09:14:51.528Z,15.33
2016-05-17T09:15:51.561Z,15.39
2016-05-17T09:16:51.611Z,15.36
2016-05-17T09:17:51.644Z,14.92
2016-05-17T09:18:51.679Z,14.51
2016-05-17T09:19:51.727Z,14.58
2016-05-17T09:20:51.746Z,14.79
2016-05-17T09:21:52.108Z,14.89
2016-05-17T09:22:51.830Z,14.94
2016-05-17T09:23:51.880Z,15.04
2016-05-17T09:24:51.913Z,14.99
2016-05-17T09:25:51.948Z,15.03
2016-05-17T09:26:51.982Z,14.91
2016-05-17T09:27:52.015Z,14.77
2016-05-17T09:28:52.049Z,14.88
2016-05-17T09:29:52.099Z,14.79
2016-05-17T09:30:52.132Z,14.79
2016-05-17T09:31:52.010Z,14.72
2016-05-17T09:32:52.201Z,14.77
2016-05-17T09:33:52.095Z,14.84
2016-05-17T09:34:52.284Z,14.86
2016-05-17T09:35:52.303Z,14.81
2016-05-17T09:36:52.368Z,14.73
2016-05-17T09:37:52.401Z,14.88
2016-05-17T09:38:52.420Z,14.77
2016-05-17T09:39:52.298Z,14.6
2016-05-17T09:40:52.503Z,14.58
2016-05-17T09:41:52.537Z,14.63
2016-05-17T09:42:52.587Z,14.65
2016-05-17T09:43:52.621Z,14.82
2016-05-17T09:44:52.655Z,14.97
2016-05-17T09:45:52.688Z,15.24
2016-05-17T09:46:52.738Z,15.37
2016-05-17T09:47:52.757Z,15.57
2016-05-17T09:48:52.805Z,15.83
2016-05-17T09:49:52.824Z,15.86
2016-05-17T09:50:52.858Z,16.17
2016-05-17T09:51:52.924Z,16.01
2016-05-17T09:52:52.942Z,16.16
2016-05-17T09:53:52.977Z,16.46
2016-05-17T09:54:53.025Z,16.66
2016-05-17T09:55:53.060Z,17.11
2016-05-17T09:56:53.110Z,17.9
2016-05-17T09:57:52.815Z,18.01
2016-05-17T09:58:53.162Z,17.59
2016-05-17T09:59:53.210Z,17.3
2016-05-17T10:00:53.245Z,17.42
2016-05-17T10:01:53.138Z,17.92
2016-05-17T10:02:53.172Z,18.19
2016-05-17T10:03:53.362Z,18.29
2016-05-17T10:04:53.428Z,18.1
2016-05-17T10:05:53.445Z,18.35
2016-05-17T10:06:53.620Z,18.6
2016-05-17T10:07:53.529Z,19.21
2016-05-17T10:08:53.579Z,19.04
2016-05-17T10:09:53.612Z,19.4
2016-05-17T10:10:53.490Z,19.4
2016-05-17T10:11:53.539Z,19.36
2016-05-17T10:12:53.575Z,19.52
2016-05-17T10:13:53.780Z,19.41
2016-05-17T10:14:53.814Z,19.15
2016-05-17T10:15:53.848Z,19.02
2016-05-17T10:16:53.913Z,19.34
2016-05-17T10:17:53.791Z,18.65
2016-05-17T10:18:53.997Z,17.71
2016-05-17T10:19:53.874Z,16.99
2016-05-17T10:20:54.111Z,16.93
2016-05-17T10:21:54.130Z,16.58
2016-05-17T10:22:54.163Z,16.39
2016-05-17T10:23:54.213Z,16.51
2016-05-17T10:24:54.246Z,16.75
2016-05-17T10:25:54.281Z,16.49
2016-05-17T10:26:54.174Z,16.32
2016-05-17T10:27:54.364Z,16.54
2016-05-17T10:28:54.414Z,16.79
2016-05-17T10:29:54.463Z,16.96
2016-05-17T10:30:54.481Z,17.29
2016-05-17T10:31:54.391Z,17.51
2016-05-17T10:32:54.424Z,17.92
2016-05-17T10:33:54.615Z,17.87
2016-05-17T10:34:54.665Z,17.49
2016-05-17T10:35:54.542Z,17.15
2016-05-17T10:36:54.841Z,16.76
2016-05-17T10:37:54.782Z,16.61
2016-05-17T10:38:54.815Z,16.54
2016-05-17T10:39:54.709Z,16.46
2016-05-17T10:40:54.900Z,16.64
2016-05-17T10:41:54.949Z,16.71
2016-05-17T10:42:54.826Z,16.57
2016-05-17T10:43:54.876Z,16.56
2016-05-17T10:44:55.051Z,16.26
2016-05-17T10:45:55.100Z,16.29
2016-05-17T10:46:55.150Z,16.1
2016-05-17T10:47:55.169Z,16.31
2016-05-17T10:48:55.217Z,16.04
2016-05-17T10:49:55.267Z,16.08
2016-05-17T10:50:55.145Z,16.21
2016-05-17T10:51:55.336Z,16.42
2016-05-17T10:52:55.385Z,16.56
2016-05-17T10:53:55.419Z,16.53
2016-05-17T10:54:55.296Z,16.54
2016-05-17T10:55:55.346Z,16.39
2016-05-17T10:56:55.536Z,15.97
2016-05-17T10:57:55.570Z,15.98
2016-05-17T10:58:55.604Z,15.86
2016-05-17T10:59:55.638Z,15.86
2016-05-17T11:00:55.532Z,15.79
2016-05-17T11:01:55.565Z,15.77
2016-05-17T11:02:55.755Z,16.05
2016-05-17T11:03:55.789Z,16.08
2016-05-17T11:04:55.823Z,16.01
2016-05-17T11:05:55.717Z,15.94
2016-05-17T11:06:55.875Z,15.86
2016-05-17T11:07:55.940Z,15.94
2016-05-17T11:08:55.990Z,16.28
2016-05-17T11:09:55.868Z,16.56
2016-05-17T11:10:56.058Z,16.5
2016-05-17T11:11:55.936Z,16.56
2016-05-17T11:12:56.125Z,16.57
2016-05-17T11:13:56.175Z,16.72
2016-05-17T11:14:56.053Z,16.61
2016-05-17T11:15:56.243Z,16.6
2016-05-17T11:16:56.121Z,16.51
2016-05-17T11:17:56.327Z,16.56
2016-05-17T11:18:56.361Z,16.51
2016-05-17T11:19:56.239Z,16.47
2016-05-17T11:20:56.429Z,16.43
2016-05-17T11:21:56.477Z,16.42
2016-05-17T11:22:56.512Z,16.47
2016-05-17T11:23:56.391Z,16.42
2016-05-17T11:24:56.580Z,16.39
2016-05-17T11:25:56.630Z,16.29
2016-05-17T11:26:56.680Z,16.23
2016-05-17T11:27:56.682Z,16.16
2016-05-17T11:28:56.732Z,16.08
2016-05-17T11:29:56.765Z,16.05
2016-05-17T11:30:56.659Z,15.98
2016-05-17T11:31:56.833Z,15.91
2016-05-17T11:32:56.727Z,16.16
2016-05-17T11:33:56.760Z,16.23
2016-05-17T11:34:56.951Z,16.26
2016-05-17T11:35:56.829Z,16.16
2016-05-17T11:36:56.878Z,16.08
2016-05-17T11:37:56.895Z,15.94
2016-05-17T11:38:57.102Z,16.08
2016-05-17T11:39:57.151Z,16.16
2016-05-17T11:40:57.232Z,16.17
2016-05-17T11:41:57.829Z,16.2
2016-05-17T11:42:57.253Z,16.24
2016-05-17T11:43:57.287Z,16.23
2016-05-17T11:44:57.321Z,16.42
2016-05-17T11:45:57.355Z,16.41
2016-05-17T11:46:57.389Z,16.65
2016-05-17T11:47:57.423Z,16.81
2016-05-17T11:48:57.472Z,17.05
2016-05-17T11:49:57.522Z,17.09
2016-05-17T11:50:57.556Z,17.23
2016-05-17T11:51:57.293Z,17.11
2016-05-17T11:52:57.483Z,17.31
2016-05-17T11:53:57.658Z,17.31
2016-05-17T11:54:57.691Z,17.34
2016-05-17T11:55:57.741Z,17.54
2016-05-17T11:56:57.775Z,18.25
2016-05-17T11:57:57.652Z,18.73
2016-05-17T11:58:57.844Z,19.27
2016-05-17T11:59:57.722Z,19.71
2016-05-17T12:00:57.926Z,20.34
2016-05-17T12:01:57.804Z,20.82
2016-05-17T12:02:58.010Z,20.51
2016-05-17T12:03:57.888Z,20.58
2016-05-17T12:04:57.953Z,20.21
2016-05-17T12:05:57.972Z,20.24
2016-05-17T12:06:58.662Z,20.13
2016-05-17T12:07:58.054Z,19.96
2016-05-17T12:08:58.261Z,19.52
2016-05-17T12:09:58.139Z,18.71
2016-05-17T12:10:58.344Z,18.18
2016-05-17T12:11:58.378Z,17.74
2016-05-17T12:12:58.428Z,17.41
2016-05-17T12:13:58.306Z,17.52
2016-05-17T12:14:58.495Z,17.38
2016-05-17T12:15:58.545Z,17.3
2016-05-17T12:16:58.595Z,17.26
2016-05-17T12:17:58.488Z,17.09
2016-05-17T12:18:58.522Z,16.96
2016-05-17T12:19:58.744Z,16.78
2016-05-17T12:20:58.762Z,16.79
2016-05-17T12:21:58.796Z,16.69
2016-05-17T12:22:58.830Z,16.64
2016-05-17T12:23:58.722Z,16.57
2016-05-17T12:24:58.913Z,16.56
2016-05-17T12:25:58.791Z,16.53
2016-05-17T12:26:58.997Z,16.54
2016-05-17T12:27:58.874Z,16.5
2016-05-17T12:28:59.065Z,16.66
2016-05-17T12:29:58.958Z,16.75
2016-05-17T12:30:59.164Z,16.72
2016-05-17T12:31:59.198Z,16.9
2016-05-17T12:32:59.232Z,17.19
2016-05-17T12:33:59.266Z,17.39
2016-05-17T12:34:59.299Z,17.86
2016-05-17T12:35:59.349Z,18.45
2016-05-17T12:37:00.007Z,19.02
2016-05-17T12:37:59.417Z,19.27
2016-05-17T12:38:59.451Z,19.52
2016-05-17T12:39:59.360Z,19.29
2016-05-17T12:40:59.550Z,19.15
2016-05-17T12:41:59.584Z,19.21
2016-05-17T12:42:59.634Z,19.3
2016-05-17T12:43:59.668Z,19.12
2016-05-17T12:44:59.561Z,19.33
2016-05-17T12:45:59.986Z,19.59
2016-05-17T12:46:59.801Z,19.62
2016-05-17T12:47:59.834Z,20.02
2016-05-17T12:48:59.883Z,20.36
2016-05-17T12:49:59.933Z,20.07
2016-05-17T12:50:59.952Z,19.52
2016-05-17T12:51:59.861Z,19.39
2016-05-17T12:52:59.879Z,19.7
2016-05-17T12:53:59.928Z,20.16
2016-05-17T12:55:00.135Z,19.89
2016-05-17T12:56:00.169Z,19.48
2016-05-17T12:57:00.219Z,19.3
2016-05-17T12:58:00.268Z,19.56
2016-05-17T12:59:00.301Z,20.07
2016-05-17T13:00:00.194Z,20.58
2016-05-17T13:01:00.401Z,20.25
2016-05-17T13:02:00.435Z,19.84
2016-05-17T13:03:00.469Z,19.59